Terminal Aerodrome Forecast
Issued by NWS

Home | Current Version | Previous Version | Text Only | Print | Product List | Glossary On
Versions: 1 2 3 4 5 6 7 8 9 10 11 12 13 14 15 16 17 18
000
FTUS41 KPBZ 111136
TAFHLG
TAF
KHLG 111136Z 1112/1212 27006KT P6SM BKN040
     FM111700 20005KT P6SM BKN060
     FM120900 23010G20KT 3SM -SN OVC025
     FM121100 25011G25KT 5SM -SHSN OVC015=

USA.gov is the U.S. government's official web portal to all federal, state and local government web resources and services.